sensor_id;sensor_type;location;lat;lon;timestamp;P1;durP1;ratioP1;P2;durP2;ratioP2
35993;SDS011;22066;54.274;18.578;2023-12-20T00:01:31;4.22;;;1.65;;
35993;SDS011;22066;54.274;18.578;2023-12-20T00:03:57;7.38;;;2.90;;
35993;SDS011;22066;54.274;18.578;2023-12-20T00:06:23;3.85;;;3.55;;
35993;SDS011;22066;54.274;18.578;2023-12-20T00:08:49;5.03;;;0.85;;
35993;SDS011;22066;54.274;18.578;2023-12-20T00:11:15;0.65;;;0.65;;
35993;SDS011;22066;54.274;18.578;2023-12-20T00:13:42;6.25;;;1.65;;
35993;SDS011;22066;54.274;18.578;2023-12-20T00:16:09;1.55;;;0.90;;
35993;SDS011;22066;54.274;18.578;2023-12-20T00:18:35;0.75;;;0.55;;
35993;SDS011;22066;54.274;18.578;2023-12-20T00:21:01;0.10;;;0.10;;
35993;SDS011;22066;54.274;18.578;2023-12-20T00:23:27;10.70;;;2.72;;
35993;SDS011;22066;54.274;18.578;2023-12-20T00:25:53;0.22;;;0.22;;
35993;SDS011;22066;54.274;18.578;2023-12-20T00:28:19;0.08;;;0.08;;
35993;SDS011;22066;54.274;18.578;2023-12-20T00:30:45;0.98;;;0.90;;
35993;SDS011;22066;54.274;18.578;2023-12-20T00:33:11;1.00;;;0.98;;
35993;SDS011;22066;54.274;18.578;2023-12-20T00:35:37;0.32;;;0.32;;
35993;SDS011;22066;54.274;18.578;2023-12-20T00:38:03;0.00;;;0.00;;
35993;SDS011;22066;54.274;18.578;2023-12-20T00:40:32;0.03;;;0.03;;
35993;SDS011;22066;54.274;18.578;2023-12-20T00:42:58;2.20;;;0.63;;
35993;SDS011;22066;54.274;18.578;2023-12-20T00:45:24;0.00;;;0.00;;
35993;SDS011;22066;54.274;18.578;2023-12-20T00:47:50;0.00;;;0.00;;
35993;SDS011;22066;54.274;18.578;2023-12-20T00:50:16;0.52;;;0.50;;
35993;SDS011;22066;54.274;18.578;2023-12-20T00:52:42;0.00;;;0.00;;
35993;SDS011;22066;54.274;18.578;2023-12-20T00:55:09;1.20;;;1.10;;
35993;SDS011;22066;54.274;18.578;2023-12-20T00:57:35;0.00;;;0.00;;
35993;SDS011;22066;54.274;18.578;2023-12-20T01:00:01;0.00;;;0.00;;
35993;SDS011;22066;54.274;18.578;2023-12-20T01:02:27;0.00;;;0.00;;
35993;SDS011;22066;54.274;18.578;2023-12-20T01:04:53;0.10;;;0.10;;
35993;SDS011;22066;54.274;18.578;2023-12-20T01:07:19;0.00;;;0.00;;
35993;SDS011;22066;54.274;18.578;2023-12-20T01:09:45;0.20;;;0.20;;
35993;SDS011;22066;54.274;18.578;2023-12-20T01:12:11;0.00;;;0.00;;
35993;SDS011;22066;54.274;18.578;2023-12-20T01:14:37;0.00;;;0.00;;
35993;SDS011;22066;54.274;18.578;2023-12-20T01:17:04;0.00;;;0.00;;
35993;SDS011;22066;54.274;18.578;2023-12-20T01:19:30;0.00;;;0.00;;
35993;SDS011;22066;54.274;18.578;2023-12-20T01:21:56;0.00;;;0.00;;
35993;SDS011;22066;54.274;18.578;2023-12-20T01:24:22;0.00;;;0.00;;
35993;SDS011;22066;54.274;18.578;2023-12-20T01:26:48;0.00;;;0.00;;
35993;SDS011;22066;54.274;18.578;2023-12-20T01:29:15;0.15;;;0.15;;
35993;SDS011;22066;54.274;18.578;2023-12-20T01:31:41;0.00;;;0.00;;
35993;SDS011;22066;54.274;18.578;2023-12-20T01:34:07;0.00;;;0.00;;
35993;SDS011;22066;54.274;18.578;2023-12-20T01:36:33;0.00;;;0.00;;
35993;SDS011;22066;54.274;18.578;2023-12-20T01:38:59;0.03;;;0.03;;
35993;SDS011;22066;54.274;18.578;2023-12-20T01:41:25;0.00;;;0.00;;
35993;SDS011;22066;54.274;18.578;2023-12-20T01:43:51;0.00;;;0.00;;
35993;SDS011;22066;54.274;18.578;2023-12-20T01:46:18;0.00;;;0.00;;
35993;SDS011;22066;54.274;18.578;2023-12-20T01:48:44;0.00;;;0.00;;
35993;SDS011;22066;54.274;18.578;2023-12-20T01:51:10;0.45;;;0.45;;
35993;SDS011;22066;54.274;18.578;2023-12-20T01:53:37;0.00;;;0.00;;
35993;SDS011;22066;54.274;18.578;2023-12-20T01:56:04;0.00;;;0.00;;
35993;SDS011;22066;54.274;18.578;2023-12-20T01:58:30;0.00;;;0.00;;
35993;SDS011;22066;54.274;18.578;2023-12-20T02:00:56;0.00;;;0.00;;
35993;SDS011;22066;54.274;18.578;2023-12-20T02:03:24;0.77;;;0.77;;
35993;SDS011;22066;54.274;18.578;2023-12-20T02:05:50;0.00;;;0.00;;
35993;SDS011;22066;54.274;18.578;2023-12-20T02:08:16;0.00;;;0.00;;
35993;SDS011;22066;54.274;18.578;2023-12-20T02:10:42;0.00;;;0.00;;
35993;SDS011;22066;54.274;18.578;2023-12-20T02:13:09;0.10;;;0.10;;
35993;SDS011;22066;54.274;18.578;2023-12-20T02:15:35;0.47;;;0.47;;
35993;SDS011;22066;54.274;18.578;2023-12-20T02:18:06;0.20;;;0.20;;
35993;SDS011;22066;54.274;18.578;2023-12-20T02:20:32;0.00;;;0.00;;
35993;SDS011;22066;54.274;18.578;2023-12-20T02:22:58;0.00;;;0.00;;
35993;SDS011;22066;54.274;18.578;2023-12-20T02:25:24;0.00;;;0.00;;
35993;SDS011;22066;54.274;18.578;2023-12-20T02:27:50;0.10;;;0.10;;
35993;SDS011;22066;54.274;18.578;2023-12-20T02:30:17;0.05;;;0.05;;
35993;SDS011;22066;54.274;18.578;2023-12-20T02:32:43;0.00;;;0.00;;
35993;SDS011;22066;54.274;18.578;2023-12-20T02:35:09;0.00;;;0.00;;
35993;SDS011;22066;54.274;18.578;2023-12-20T02:37:35;0.00;;;0.00;;
35993;SDS011;22066;54.274;18.578;2023-12-20T02:40:01;0.00;;;0.00;;
35993;SDS011;22066;54.274;18.578;2023-12-20T02:42:29;0.00;;;0.00;;
35993;SDS011;22066;54.274;18.578;2023-12-20T02:44:55;0.00;;;0.00;;
35993;SDS011;22066;54.274;18.578;2023-12-20T02:47:21;0.00;;;0.00;;
35993;SDS011;22066;54.274;18.578;2023-12-20T02:49:47;0.00;;;0.00;;
35993;SDS011;22066;54.274;18.578;2023-12-20T02:52:14;0.00;;;0.00;;
35993;SDS011;22066;54.274;18.578;2023-12-20T02:54:40;0.98;;;0.30;;
35993;SDS011;22066;54.274;18.578;2023-12-20T02:57:06;0.00;;;0.00;;
35993;SDS011;22066;54.274;18.578;2023-12-20T02:59:32;0.00;;;0.00;;
35993;SDS011;22066;54.274;18.578;2023-12-20T03:01:58;0.00;;;0.00;;
35993;SDS011;22066;54.274;18.578;2023-12-20T03:04:24;0.00;;;0.00;;
35993;SDS011;22066;54.274;18.578;2023-12-20T03:06:50;0.00;;;0.00;;
35993;SDS011;22066;54.274;18.578;2023-12-20T03:09:16;0.00;;;0.00;;
35993;SDS011;22066;54.274;18.578;2023-12-20T03:11:42;0.00;;;0.00;;
35993;SDS011;22066;54.274;18.578;2023-12-20T03:14:08;0.00;;;0.00;;
35993;SDS011;22066;54.274;18.578;2023-12-20T03:16:35;0.00;;;0.00;;
35993;SDS011;22066;54.274;18.578;2023-12-20T03:19:01;0.00;;;0.00;;
35993;SDS011;22066;54.274;18.578;2023-12-20T03:21:27;0.00;;;0.00;;
35993;SDS011;22066;54.274;18.578;2023-12-20T03:23:53;0.00;;;0.00;;
35993;SDS011;22066;54.274;18.578;2023-12-20T03:26:19;0.00;;;0.00;;
35993;SDS011;22066;54.274;18.578;2023-12-20T03:28:45;0.00;;;0.00;;
35993;SDS011;22066;54.274;18.578;2023-12-20T03:31:17;0.00;;;0.00;;
35993;SDS011;22066;54.274;18.578;2023-12-20T03:33:43;0.00;;;0.00;;
35993;SDS011;22066;54.274;18.578;2023-12-20T03:36:09;0.00;;;0.00;;
35993;SDS011;22066;54.274;18.578;2023-12-20T03:38:35;0.57;;;0.57;;
35993;SDS011;22066;54.274;18.578;2023-12-20T03:41:01;0.00;;;0.00;;
35993;SDS011;22066;54.274;18.578;2023-12-20T03:43:27;0.00;;;0.00;;
35993;SDS011;22066;54.274;18.578;2023-12-20T03:45:53;0.07;;;0.07;;
35993;SDS011;22066;54.274;18.578;2023-12-20T03:48:19;0.00;;;0.00;;
35993;SDS011;22066;54.274;18.578;2023-12-20T03:50:45;0.10;;;0.10;;
35993;SDS011;22066;54.274;18.578;2023-12-20T03:53:12;0.00;;;0.00;;
35993;SDS011;22066;54.274;18.578;2023-12-20T03:55:38;0.03;;;0.03;;
35993;SDS011;22066;54.274;18.578;2023-12-20T03:58:04;0.00;;;0.00;;
35993;SDS011;22066;54.274;18.578;2023-12-20T04:00:30;0.20;;;0.20;;
35993;SDS011;22066;54.274;18.578;2023-12-20T04:02:56;0.00;;;0.00;;
35993;SDS011;22066;54.274;18.578;2023-12-20T04:05:22;0.17;;;0.17;;
35993;SDS011;22066;54.274;18.578;2023-12-20T04:07:48;0.00;;;0.00;;
35993;SDS011;22066;54.274;18.578;2023-12-20T04:10:15;0.00;;;0.00;;
35993;SDS011;22066;54.274;18.578;2023-12-20T04:12:41;1.33;;;1.23;;
35993;SDS011;22066;54.274;18.578;2023-12-20T04:15:07;0.00;;;0.00;;
35993;SDS011;22066;54.274;18.578;2023-12-20T04:17:35;0.90;;;0.87;;
35993;SDS011;22066;54.274;18.578;2023-12-20T04:20:01;0.00;;;0.00;;
35993;SDS011;22066;54.274;18.578;2023-12-20T04:22:27;0.00;;;0.00;;
35993;SDS011;22066;54.274;18.578;2023-12-20T04:24:53;0.00;;;0.00;;
35993;SDS011;22066;54.274;18.578;2023-12-20T04:27:19;0.00;;;0.00;;
35993;SDS011;22066;54.274;18.578;2023-12-20T04:29:46;0.00;;;0.00;;
35993;SDS011;22066;54.274;18.578;2023-12-20T04:32:12;0.00;;;0.00;;
35993;SDS011;22066;54.274;18.578;2023-12-20T04:34:38;0.40;;;0.40;;
35993;SDS011;22066;54.274;18.578;2023-12-20T04:37:04;0.23;;;0.23;;
35993;SDS011;22066;54.274;18.578;2023-12-20T04:39:36;0.00;;;0.00;;
35993;SDS011;22066;54.274;18.578;2023-12-20T04:42:02;0.00;;;0.00;;
35993;SDS011;22066;54.274;18.578;2023-12-20T04:44:28;0.00;;;0.00;;
35993;SDS011;22066;54.274;18.578;2023-12-20T04:46:54;0.00;;;0.00;;
35993;SDS011;22066;54.274;18.578;2023-12-20T04:49:21;0.00;;;0.00;;
35993;SDS011;22066;54.274;18.578;2023-12-20T04:51:47;0.00;;;0.00;;
35993;SDS011;22066;54.274;18.578;2023-12-20T04:54:14;0.10;;;0.10;;
35993;SDS011;22066;54.274;18.578;2023-12-20T04:56:40;0.20;;;0.20;;
35993;SDS011;22066;54.274;18.578;2023-12-20T04:59:07;0.00;;;0.00;;
35993;SDS011;22066;54.274;18.578;2023-12-20T05:01:33;0.00;;;0.00;;
35993;SDS011;22066;54.274;18.578;2023-12-20T05:03:59;0.00;;;0.00;;
35993;SDS011;22066;54.274;18.578;2023-12-20T05:06:25;0.00;;;0.00;;
35993;SDS011;22066;54.274;18.578;2023-12-20T05:08:51;0.50;;;0.50;;
35993;SDS011;22066;54.274;18.578;2023-12-20T05:11:17;0.00;;;0.00;;
35993;SDS011;22066;54.274;18.578;2023-12-20T05:13:43;0.00;;;0.00;;
35993;SDS011;22066;54.274;18.578;2023-12-20T05:16:09;0.00;;;0.00;;
35993;SDS011;22066;54.274;18.578;2023-12-20T05:18:35;9.90;;;1.40;;
35993;SDS011;22066;54.274;18.578;2023-12-20T05:21:01;0.00;;;0.00;;
35993;SDS011;22066;54.274;18.578;2023-12-20T05:23:27;0.00;;;0.00;;
35993;SDS011;22066;54.274;18.578;2023-12-20T05:25:53;0.63;;;0.63;;
35993;SDS011;22066;54.274;18.578;2023-12-20T05:28:19;0.00;;;0.00;;
35993;SDS011;22066;54.274;18.578;2023-12-20T05:30:45;0.00;;;0.00;;
35993;SDS011;22066;54.274;18.578;2023-12-20T05:33:11;0.20;;;0.20;;
35993;SDS011;22066;54.274;18.578;2023-12-20T05:35:37;0.57;;;0.57;;
35993;SDS011;22066;54.274;18.578;2023-12-20T05:38:03;0.00;;;0.00;;
35993;SDS011;22066;54.274;18.578;2023-12-20T05:40:29;0.00;;;0.00;;
35993;SDS011;22066;54.274;18.578;2023-12-20T05:42:55;0.00;;;0.00;;
35993;SDS011;22066;54.274;18.578;2023-12-20T05:45:21;0.00;;;0.00;;
35993;SDS011;22066;54.274;18.578;2023-12-20T05:47:47;0.00;;;0.00;;
35993;SDS011;22066;54.274;18.578;2023-12-20T05:50:14;0.00;;;0.00;;
35993;SDS011;22066;54.274;18.578;2023-12-20T05:52:40;0.00;;;0.00;;
35993;SDS011;22066;54.274;18.578;2023-12-20T05:55:06;0.40;;;0.40;;
35993;SDS011;22066;54.274;18.578;2023-12-20T05:57:32;1.07;;;0.97;;
35993;SDS011;22066;54.274;18.578;2023-12-20T05:59:58;0.43;;;0.43;;
35993;SDS011;22066;54.274;18.578;2023-12-20T06:02:24;0.00;;;0.00;;
35993;SDS011;22066;54.274;18.578;2023-12-20T06:04:50;0.10;;;0.10;;
35993;SDS011;22066;54.274;18.578;2023-12-20T06:07:16;0.23;;;0.23;;
35993;SDS011;22066;54.274;18.578;2023-12-20T06:09:42;0.07;;;0.07;;
35993;SDS011;22066;54.274;18.578;2023-12-20T06:12:08;0.03;;;0.03;;
35993;SDS011;22066;54.274;18.578;2023-12-20T06:14:35;0.37;;;0.37;;
35993;SDS011;22066;54.274;18.578;2023-12-20T06:17:01;0.00;;;0.00;;
35993;SDS011;22066;54.274;18.578;2023-12-20T06:19:27;1.80;;;0.43;;
35993;SDS011;22066;54.274;18.578;2023-12-20T06:21:53;0.00;;;0.00;;
35993;SDS011;22066;54.274;18.578;2023-12-20T06:24:20;0.20;;;0.20;;
35993;SDS011;22066;54.274;18.578;2023-12-20T06:26:46;0.00;;;0.00;;
35993;SDS011;22066;54.274;18.578;2023-12-20T06:29:12;0.10;;;0.10;;
35993;SDS011;22066;54.274;18.578;2023-12-20T06:31:38;0.00;;;0.00;;
35993;SDS011;22066;54.274;18.578;2023-12-20T06:34:04;0.00;;;0.00;;
35993;SDS011;22066;54.274;18.578;2023-12-20T06:36:30;0.00;;;0.00;;
35993;SDS011;22066;54.274;18.578;2023-12-20T06:38:56;0.00;;;0.00;;
35993;SDS011;22066;54.274;18.578;2023-12-20T06:41:23;0.10;;;0.10;;
35993;SDS011;22066;54.274;18.578;2023-12-20T06:43:49;0.00;;;0.00;;
35993;SDS011;22066;54.274;18.578;2023-12-20T06:46:16;16.03;;;1.30;;
35993;SDS011;22066;54.274;18.578;2023-12-20T06:48:42;0.00;;;0.00;;
35993;SDS011;22066;54.274;18.578;2023-12-20T06:51:11;0.00;;;0.00;;
35993;SDS011;22066;54.274;18.578;2023-12-20T06:53:38;0.10;;;0.10;;
35993;SDS011;22066;54.274;18.578;2023-12-20T06:56:04;0.03;;;0.03;;
35993;SDS011;22066;54.274;18.578;2023-12-20T06:58:30;0.30;;;0.30;;
35993;SDS011;22066;54.274;18.578;2023-12-20T07:00:56;0.73;;;0.73;;
35993;SDS011;22066;54.274;18.578;2023-12-20T07:03:22;0.30;;;0.30;;
35993;SDS011;22066;54.274;18.578;2023-12-20T07:05:48;0.10;;;0.10;;
35993;SDS011;22066;54.274;18.578;2023-12-20T07:08:14;0.50;;;0.50;;
35993;SDS011;22066;54.274;18.578;2023-12-20T07:10:40;0.00;;;0.00;;
35993;SDS011;22066;54.274;18.578;2023-12-20T07:13:06;0.00;;;0.00;;
35993;SDS011;22066;54.274;18.578;2023-12-20T07:15:33;1.50;;;1.33;;
35993;SDS011;22066;54.274;18.578;2023-12-20T07:17:59;0.10;;;0.10;;
35993;SDS011;22066;54.274;18.578;2023-12-20T07:20:25;0.10;;;0.10;;
35993;SDS011;22066;54.274;18.578;2023-12-20T07:22:51;0.00;;;0.00;;
35993;SDS011;22066;54.274;18.578;2023-12-20T07:25:17;0.20;;;0.20;;
35993;SDS011;22066;54.274;18.578;2023-12-20T07:27:45;0.23;;;0.23;;
35993;SDS011;22066;54.274;18.578;2023-12-20T07:30:11;0.00;;;0.00;;
35993;SDS011;22066;54.274;18.578;2023-12-20T07:32:37;0.37;;;0.37;;
35993;SDS011;22066;54.274;18.578;2023-12-20T07:35:03;0.00;;;0.00;;
35993;SDS011;22066;54.274;18.578;2023-12-20T07:37:30;1.80;;;1.30;;
35993;SDS011;22066;54.274;18.578;2023-12-20T07:39:56;0.57;;;0.57;;
35993;SDS011;22066;54.274;18.578;2023-12-20T07:42:22;0.40;;;0.40;;
35993;SDS011;22066;54.274;18.578;2023-12-20T07:44:48;11.30;;;1.70;;
35993;SDS011;22066;54.274;18.578;2023-12-20T07:47:14;0.30;;;0.30;;
35993;SDS011;22066;54.274;18.578;2023-12-20T07:49:44;0.80;;;0.80;;
35993;SDS011;22066;54.274;18.578;2023-12-20T07:52:10;1.40;;;0.83;;
35993;SDS011;22066;54.274;18.578;2023-12-20T07:54:36;1.03;;;1.03;;
35993;SDS011;22066;54.274;18.578;2023-12-20T07:57:02;6.47;;;3.73;;
35993;SDS011;22066;54.274;18.578;2023-12-20T07:59:28;5.13;;;2.97;;
35993;SDS011;22066;54.274;18.578;2023-12-20T08:01:54;1.87;;;1.77;;
35993;SDS011;22066;54.274;18.578;2023-12-20T08:04:20;11.03;;;6.90;;
35993;SDS011;22066;54.274;18.578;2023-12-20T08:06:47;8.03;;;4.80;;
35993;SDS011;22066;54.274;18.578;2023-12-20T08:09:13;13.83;;;7.13;;
35993;SDS011;22066;54.274;18.578;2023-12-20T08:11:39;13.17;;;7.57;;
35993;SDS011;22066;54.274;18.578;2023-12-20T08:14:05;3.50;;;3.30;;
35993;SDS011;22066;54.274;18.578;2023-12-20T08:16:31;5.30;;;4.07;;
35993;SDS011;22066;54.274;18.578;2023-12-20T08:18:57;2.37;;;2.07;;
35993;SDS011;22066;54.274;18.578;2023-12-20T08:21:23;4.40;;;2.87;;
35993;SDS011;22066;54.274;18.578;2023-12-20T08:23:49;5.93;;;2.50;;
35993;SDS011;22066;54.274;18.578;2023-12-20T08:26:18;0.60;;;0.60;;
35993;SDS011;22066;54.274;18.578;2023-12-20T08:28:45;0.87;;;0.83;;
35993;SDS011;22066;54.274;18.578;2023-12-20T08:31:14;0.00;;;0.00;;
35993;SDS011;22066;54.274;18.578;2023-12-20T08:33:41;0.40;;;0.40;;
35993;SDS011;22066;54.274;18.578;2023-12-20T08:36:07;1.47;;;0.77;;
35993;SDS011;22066;54.274;18.578;2023-12-20T08:38:33;0.00;;;0.00;;
35993;SDS011;22066;54.274;18.578;2023-12-20T08:40:59;0.00;;;0.00;;
35993;SDS011;22066;54.274;18.578;2023-12-20T08:43:27;0.10;;;0.10;;
35993;SDS011;22066;54.274;18.578;2023-12-20T08:45:54;0.10;;;0.10;;
35993;SDS011;22066;54.274;18.578;2023-12-20T08:48:20;0.00;;;0.00;;
35993;SDS011;22066;54.274;18.578;2023-12-20T08:50:46;0.13;;;0.13;;
35993;SDS011;22066;54.274;18.578;2023-12-20T08:53:13;0.30;;;0.30;;
35993;SDS011;22066;54.274;18.578;2023-12-20T08:55:41;3.03;;;2.83;;
35993;SDS011;22066;54.274;18.578;2023-12-20T08:58:07;0.10;;;0.10;;
35993;SDS011;22066;54.274;18.578;2023-12-20T09:00:36;1.17;;;0.93;;
35993;SDS011;22066;54.274;18.578;2023-12-20T09:03:03;0.20;;;0.20;;
35993;SDS011;22066;54.274;18.578;2023-12-20T09:05:30;0.50;;;0.50;;
35993;SDS011;22066;54.274;18.578;2023-12-20T09:07:56;0.20;;;0.20;;
35993;SDS011;22066;54.274;18.578;2023-12-20T09:10:22;0.73;;;0.73;;
35993;SDS011;22066;54.274;18.578;2023-12-20T09:12:49;0.00;;;0.00;;
35993;SDS011;22066;54.274;18.578;2023-12-20T09:15:15;0.57;;;0.57;;
35993;SDS011;22066;54.274;18.578;2023-12-20T09:17:41;1.60;;;1.30;;
35993;SDS011;22066;54.274;18.578;2023-12-20T09:20:08;0.00;;;0.00;;
35993;SDS011;22066;54.274;18.578;2023-12-20T09:22:35;0.13;;;0.13;;
35993;SDS011;22066;54.274;18.578;2023-12-20T09:25:03;0.00;;;0.00;;
35993;SDS011;22066;54.274;18.578;2023-12-20T09:27:29;0.00;;;0.00;;
35993;SDS011;22066;54.274;18.578;2023-12-20T09:29:55;0.00;;;0.00;;
35993;SDS011;22066;54.274;18.578;2023-12-20T09:32:21;0.00;;;0.00;;
35993;SDS011;22066;54.274;18.578;2023-12-20T09:34:47;1.20;;;0.95;;
35993;SDS011;22066;54.274;18.578;2023-12-20T09:37:13;2.17;;;0.45;;
35993;SDS011;22066;54.274;18.578;2023-12-20T09:39:39;0.90;;;0.52;;
35993;SDS011;22066;54.274;18.578;2023-12-20T09:42:06;5.57;;;1.33;;
35993;SDS011;22066;54.274;18.578;2023-12-20T09:44:32;0.30;;;0.30;;
35993;SDS011;22066;54.274;18.578;2023-12-20T09:47:00;0.22;;;0.22;;
35993;SDS011;22066;54.274;18.578;2023-12-20T09:49:27;0.20;;;0.20;;
35993;SDS011;22066;54.274;18.578;2023-12-20T09:51:54;0.10;;;0.10;;
35993;SDS011;22066;54.274;18.578;2023-12-20T09:54:21;0.00;;;0.00;;
35993;SDS011;22066;54.274;18.578;2023-12-20T09:56:47;2.28;;;0.60;;
35993;SDS011;22066;54.274;18.578;2023-12-20T09:59:13;0.45;;;0.45;;
35993;SDS011;22066;54.274;18.578;2023-12-20T10:01:40;0.65;;;0.65;;
35993;SDS011;22066;54.274;18.578;2023-12-20T10:04:07;0.00;;;0.00;;
35993;SDS011;22066;54.274;18.578;2023-12-20T10:06:43;1.23;;;1.15;;
35993;SDS011;22066;54.274;18.578;2023-12-20T10:09:10;0.70;;;0.68;;
35993;SDS011;22066;54.274;18.578;2023-12-20T10:11:36;0.10;;;0.10;;
35993;SDS011;22066;54.274;18.578;2023-12-20T10:14:03;0.00;;;0.00;;
35993;SDS011;22066;54.274;18.578;2023-12-20T10:16:30;0.00;;;0.00;;
35993;SDS011;22066;54.274;18.578;2023-12-20T10:18:56;0.30;;;0.30;;
35993;SDS011;22066;54.274;18.578;2023-12-20T10:21:22;0.70;;;0.68;;
35993;SDS011;22066;54.274;18.578;2023-12-20T10:23:51;0.50;;;0.50;;
35993;SDS011;22066;54.274;18.578;2023-12-20T10:26:26;5.10;;;4.35;;
35993;SDS011;22066;54.274;18.578;2023-12-20T10:28:53;6.30;;;4.65;;
35993;SDS011;22066;54.274;18.578;2023-12-20T10:31:34;3.38;;;3.05;;
35993;SDS011;22066;54.274;18.578;2023-12-20T10:34:01;0.10;;;0.10;;
35993;SDS011;22066;54.274;18.578;2023-12-20T10:36:31;0.65;;;0.40;;
35993;SDS011;22066;54.274;18.578;2023-12-20T10:38:58;4.97;;;1.77;;
35993;SDS011;22066;54.274;18.578;2023-12-20T10:41:25;0.47;;;0.45;;
35993;SDS011;22066;54.274;18.578;2023-12-20T10:46:19;0.20;;;0.20;;
35993;SDS011;22066;54.274;18.578;2023-12-20T10:48:45;0.00;;;0.00;;
35993;SDS011;22066;54.274;18.578;2023-12-20T10:51:13;0.00;;;0.00;;
35993;SDS011;22066;54.274;18.578;2023-12-20T10:53:40;0.00;;;0.00;;
35993;SDS011;22066;54.274;18.578;2023-12-20T10:56:06;1.10;;;1.00;;
35993;SDS011;22066;54.274;18.578;2023-12-20T10:58:33;0.13;;;0.13;;
35993;SDS011;22066;54.274;18.578;2023-12-20T11:01:01;0.00;;;0.00;;
35993;SDS011;22066;54.274;18.578;2023-12-20T11:03:27;0.10;;;0.10;;
35993;SDS011;22066;54.274;18.578;2023-12-20T11:06:09;0.13;;;0.13;;
35993;SDS011;22066;54.274;18.578;2023-12-20T11:08:41;0.85;;;0.68;;
35993;SDS011;22066;54.274;18.578;2023-12-20T11:11:25;0.00;;;0.00;;
35993;SDS011;22066;54.274;18.578;2023-12-20T11:13:58;0.68;;;0.55;;
35993;SDS011;22066;54.274;18.578;2023-12-20T11:16:25;0.00;;;0.00;;
35993;SDS011;22066;54.274;18.578;2023-12-20T11:18:51;0.00;;;0.00;;
35993;SDS011;22066;54.274;18.578;2023-12-20T11:21:17;0.00;;;0.00;;
35993;SDS011;22066;54.274;18.578;2023-12-20T11:23:43;0.57;;;0.57;;
35993;SDS011;22066;54.274;18.578;2023-12-20T11:26:10;0.00;;;0.00;;
35993;SDS011;22066;54.274;18.578;2023-12-20T11:28:36;0.40;;;0.40;;
35993;SDS011;22066;54.274;18.578;2023-12-20T11:31:02;0.00;;;0.00;;
35993;SDS011;22066;54.274;18.578;2023-12-20T11:33:35;0.05;;;0.05;;
35993;SDS011;22066;54.274;18.578;2023-12-20T11:36:01;1.60;;;1.52;;
35993;SDS011;22066;54.274;18.578;2023-12-20T11:38:35;0.00;;;0.00;;
35993;SDS011;22066;54.274;18.578;2023-12-20T11:41:02;0.00;;;0.00;;
35993;SDS011;22066;54.274;18.578;2023-12-20T11:43:37;0.13;;;0.13;;
35993;SDS011;22066;54.274;18.578;2023-12-20T11:48:31;0.10;;;0.10;;
35993;SDS011;22066;54.274;18.578;2023-12-20T11:50:57;0.73;;;0.73;;
35993;SDS011;22066;54.274;18.578;2023-12-20T11:53:23;0.90;;;0.60;;
35993;SDS011;22066;54.274;18.578;2023-12-20T11:55:49;0.10;;;0.10;;
35993;SDS011;22066;54.274;18.578;2023-12-20T11:58:15;0.05;;;0.05;;
35993;SDS011;22066;54.274;18.578;2023-12-20T12:00:42;0.00;;;0.00;;
35993;SDS011;22066;54.274;18.578;2023-12-20T12:03:08;0.35;;;0.35;;
35993;SDS011;22066;54.274;18.578;2023-12-20T12:05:35;0.00;;;0.00;;
35993;SDS011;22066;54.274;18.578;2023-12-20T12:08:02;1.30;;;1.20;;
35993;SDS011;22066;54.274;18.578;2023-12-20T12:10:31;0.00;;;0.00;;
35993;SDS011;22066;54.274;18.578;2023-12-20T12:12:57;0.00;;;0.00;;
35993;SDS011;22066;54.274;18.578;2023-12-20T12:15:23;0.00;;;0.00;;
35993;SDS011;22066;54.274;18.578;2023-12-20T12:17:53;0.00;;;0.00;;
35993;SDS011;22066;54.274;18.578;2023-12-20T12:20:20;0.17;;;0.17;;
35993;SDS011;22066;54.274;18.578;2023-12-20T12:22:46;0.00;;;0.00;;
35993;SDS011;22066;54.274;18.578;2023-12-20T12:25:15;0.00;;;0.00;;
35993;SDS011;22066;54.274;18.578;2023-12-20T12:27:42;0.00;;;0.00;;
35993;SDS011;22066;54.274;18.578;2023-12-20T12:30:09;0.20;;;0.17;;
35993;SDS011;22066;54.274;18.578;2023-12-20T12:32:37;0.00;;;0.00;;
35993;SDS011;22066;54.274;18.578;2023-12-20T12:35:04;0.10;;;0.10;;
35993;SDS011;22066;54.274;18.578;2023-12-20T12:37:34;0.00;;;0.00;;
35993;SDS011;22066;54.274;18.578;2023-12-20T12:40:05;0.00;;;0.00;;
35993;SDS011;22066;54.274;18.578;2023-12-20T12:42:31;0.00;;;0.00;;
35993;SDS011;22066;54.274;18.578;2023-12-20T12:44:57;0.00;;;0.00;;
35993;SDS011;22066;54.274;18.578;2023-12-20T12:47:23;0.30;;;0.30;;
35993;SDS011;22066;54.274;18.578;2023-12-20T12:49:50;0.10;;;0.10;;
35993;SDS011;22066;54.274;18.578;2023-12-20T12:52:18;0.00;;;0.00;;
35993;SDS011;22066;54.274;18.578;2023-12-20T12:54:44;0.00;;;0.00;;
35993;SDS011;22066;54.274;18.578;2023-12-20T12:57:10;0.35;;;0.35;;
35993;SDS011;22066;54.274;18.578;2023-12-20T12:59:36;0.35;;;0.35;;
35993;SDS011;22066;54.274;18.578;2023-12-20T13:02:02;0.00;;;0.00;;
35993;SDS011;22066;54.274;18.578;2023-12-20T13:04:28;0.20;;;0.20;;
35993;SDS011;22066;54.274;18.578;2023-12-20T13:06:55;0.32;;;0.25;;
35993;SDS011;22066;54.274;18.578;2023-12-20T13:09:22;0.00;;;0.00;;
35993;SDS011;22066;54.274;18.578;2023-12-20T13:11:48;0.10;;;0.10;;
35993;SDS011;22066;54.274;18.578;2023-12-20T13:14:14;0.00;;;0.00;;
35993;SDS011;22066;54.274;18.578;2023-12-20T13:16:41;0.00;;;0.00;;
35993;SDS011;22066;54.274;18.578;2023-12-20T13:19:07;0.20;;;0.20;;
35993;SDS011;22066;54.274;18.578;2023-12-20T13:21:34;0.00;;;0.00;;
35993;SDS011;22066;54.274;18.578;2023-12-20T13:24:01;0.63;;;0.55;;
35993;SDS011;22066;54.274;18.578;2023-12-20T13:26:27;0.00;;;0.00;;
35993;SDS011;22066;54.274;18.578;2023-12-20T13:28:53;0.00;;;0.00;;
35993;SDS011;22066;54.274;18.578;2023-12-20T13:31:19;0.00;;;0.00;;
35993;SDS011;22066;54.274;18.578;2023-12-20T13:33:45;0.10;;;0.10;;
35993;SDS011;22066;54.274;18.578;2023-12-20T13:36:12;0.22;;;0.22;;
35993;SDS011;22066;54.274;18.578;2023-12-20T13:38:38;0.03;;;0.03;;
35993;SDS011;22066;54.274;18.578;2023-12-20T13:41:04;0.00;;;0.00;;
35993;SDS011;22066;54.274;18.578;2023-12-20T13:43:31;0.00;;;0.00;;
35993;SDS011;22066;54.274;18.578;2023-12-20T13:45:58;0.75;;;0.75;;
35993;SDS011;22066;54.274;18.578;2023-12-20T13:48:24;0.55;;;0.22;;
35993;SDS011;22066;54.274;18.578;2023-12-20T13:50:50;0.13;;;0.13;;
35993;SDS011;22066;54.274;18.578;2023-12-20T13:53:16;0.73;;;0.73;;
35993;SDS011;22066;54.274;18.578;2023-12-20T13:55:42;0.00;;;0.00;;
35993;SDS011;22066;54.274;18.578;2023-12-20T13:58:08;0.17;;;0.17;;
35993;SDS011;22066;54.274;18.578;2023-12-20T14:00:35;0.00;;;0.00;;
35993;SDS011;22066;54.274;18.578;2023-12-20T14:03:02;0.00;;;0.00;;
35993;SDS011;22066;54.274;18.578;2023-12-20T14:05:28;0.00;;;0.00;;
35993;SDS011;22066;54.274;18.578;2023-12-20T14:07:54;0.00;;;0.00;;
35993;SDS011;22066;54.274;18.578;2023-12-20T14:10:22;0.00;;;0.00;;
35993;SDS011;22066;54.274;18.578;2023-12-20T14:12:48;0.00;;;0.00;;
35993;SDS011;22066;54.274;18.578;2023-12-20T14:15:14;0.17;;;0.17;;
35993;SDS011;22066;54.274;18.578;2023-12-20T14:17:41;0.08;;;0.08;;
35993;SDS011;22066;54.274;18.578;2023-12-20T14:20:07;0.05;;;0.05;;
35993;SDS011;22066;54.274;18.578;2023-12-20T14:22:34;0.45;;;0.45;;
35993;SDS011;22066;54.274;18.578;2023-12-20T14:25:01;0.00;;;0.00;;
35993;SDS011;22066;54.274;18.578;2023-12-20T14:27:27;0.00;;;0.00;;
35993;SDS011;22066;54.274;18.578;2023-12-20T14:29:54;0.05;;;0.05;;
35993;SDS011;22066;54.274;18.578;2023-12-20T14:32:20;0.00;;;0.00;;
35993;SDS011;22066;54.274;18.578;2023-12-20T14:34:46;0.00;;;0.00;;